Nedre Soppero, Sweden

1:34 AM CEST on August 30, 2015 (GMT +0200)
Kiruna | | Change Station
CLOSE
Current Station
Airport
Location: Kiruna,
Elevation: 1483 ft
Nearby Weather Stations

Elev 1483 ft 67.82 °N, 20.34 °E | Updated 14 minutes ago

Clear
Clear
45 °F
Feels Like 40 °F
N
9
Wind Variable Wind from SSW

Today
High -- | Low -- °F
--% Chance of Precip.
Yesterday
High -- | Low -- °F
Precip. -- in
4:49 AM 8:15 PM
Full, 100% visible
Pressure 29.71 in
Visibility 6.2 miles
Clouds
Windchill 40 °F
Dew Point 41 °F
Humidity 87%
Rainfall 0.00 in
Snow Depth Not available.
UV Not available.
Pollen Not available.
Air Quality Not available.
Flu Activity Not available.
METAR ESNQ 292320Z AUTO 21008KT 9999 NCD 07/05 Q1006
Pressure 29.71 in
Visibility 6.2 miles
Clouds
Windchill 40 °F
Dew Point 41 °F
Humidity 87%
Rainfall 0.00 in
Snow Depth Not available.
UV Not available.
Pollen Not available.
Air Quality Not available.
Flu Activity Not available.
METAR ESNQ 292320Z AUTO 21008KT 9999 NCD 07/05 Q1006

10-Day Weather Forecast

×

Almanac

Astronomy

Aug. 30, 2015 Rise Set
Actual Time
Civil Twilight
Nautical Twilight
Astronomical Twilight
Moon
Length of Visible Light
Length of Day
Tomorrow will be .
, % of the Moon is Illuminated

Today's Extremes

Country Highs Country Lows

Community

WunderPhotos

Upload Photos

1,850,783 photos uploaded!

WunderBlogs® & News

Nearby

Air Quality

  Air Quality AQ Index Pollutant
Not available.

Snow Depth

Station Depth Elevation

Earthquake Activity

City Distance Mag. Time & Date
Minimum magnitude displayed is 2.5.

Coastal Water Temperatures

Place Temperature

Stations

Nearby Weather Stations

Station Location Temp. Windchill Dew Point Humidity Wind Precip. Elev Updated Type